createdAt,value
2018-04-19T00:02:08.030Z,27.00
2018-04-19T00:04:35.626Z,24.53
2018-04-19T00:07:03.217Z,27.93
2018-04-19T00:09:30.743Z,23.63
2018-04-19T00:11:58.320Z,23.23
2018-04-19T00:14:25.843Z,21.53
2018-04-19T00:16:53.369Z,27.33
2018-04-19T00:19:20.925Z,22.40
2018-04-19T00:21:48.524Z,25.63
2018-04-19T00:24:16.065Z,25.17
2018-04-19T00:26:43.589Z,27.27
2018-04-19T00:29:11.112Z,20.70
2018-04-19T00:31:38.631Z,23.37
2018-04-19T00:34:06.232Z,26.83
2018-04-19T00:36:33.756Z,24.03
2018-04-19T00:39:01.357Z,24.00
2018-04-19T00:41:28.891Z,26.13
2018-04-19T00:43:56.418Z,22.27
2018-04-19T00:46:23.952Z,22.87
2018-04-19T00:48:51.588Z,26.10
2018-04-19T00:51:19.124Z,25.57
2018-04-19T00:53:46.652Z,24.43
2018-04-19T00:56:14.176Z,24.17
2018-04-19T00:58:41.717Z,25.53
2018-04-19T01:01:09.293Z,22.07
2018-04-19T01:03:36.819Z,25.80
2018-04-19T01:06:04.342Z,26.60
2018-04-19T01:08:31.873Z,25.13
2018-04-19T01:10:59.396Z,25.13
2018-04-19T01:13:26.916Z,25.77
2018-04-19T01:15:54.445Z,24.50
2018-04-19T01:18:21.989Z,28.40
2018-04-19T01:20:49.524Z,29.07
2018-04-19T01:23:17.056Z,36.80
2018-04-19T01:25:44.582Z,35.67
2018-04-19T01:28:12.103Z,25.77
2018-04-19T01:30:39.705Z,26.80
2018-04-19T01:33:07.239Z,28.87
2018-04-19T01:35:46.604Z,29.60
2018-04-19T01:38:14.145Z,31.17
2018-04-19T01:40:41.699Z,27.20
2018-04-19T01:43:09.225Z,25.93
2018-04-19T01:45:36.770Z,26.57
2018-04-19T01:48:04.299Z,29.03
2018-04-19T01:50:31.859Z,29.53
2018-04-19T01:52:59.392Z,36.40
2018-04-19T01:55:26.917Z,33.57
2018-04-19T01:57:54.465Z,31.77
2018-04-19T02:00:21.983Z,29.07
2018-04-19T02:02:49.509Z,35.00
2018-04-19T02:05:17.047Z,29.07
2018-04-19T02:07:44.676Z,27.83
2018-04-19T02:10:12.212Z,31.03
2018-04-19T02:12:39.753Z,31.10
2018-04-19T02:15:07.359Z,33.80
2018-04-19T02:17:34.889Z,32.70
2018-04-19T02:20:02.432Z,30.80
2018-04-19T02:22:29.968Z,30.47
2018-04-19T02:24:57.493Z,31.40
2018-04-19T02:27:25.023Z,30.23
2018-04-19T02:29:52.543Z,31.00
2018-04-19T02:32:20.080Z,31.83
2018-04-19T02:34:47.619Z,27.53
2018-04-19T02:37:15.156Z,32.60
2018-04-19T02:39:42.683Z,32.37
2018-04-19T02:42:10.212Z,31.73
2018-04-19T02:44:37.740Z,35.03
2018-04-19T02:47:05.280Z,27.60
2018-04-19T02:49:32.820Z,31.47
2018-04-19T02:52:00.955Z,33.20
2018-04-19T02:54:28.519Z,27.40
2018-04-19T02:56:56.053Z,33.73
2018-04-19T02:59:23.593Z,29.57
2018-04-19T03:01:51.132Z,34.90
2018-04-19T03:04:18.672Z,26.87
2018-04-19T03:06:46.214Z,27.43
2018-04-19T03:09:13.751Z,34.63
2018-04-19T03:11:41.294Z,27.43
2018-04-19T03:14:08.826Z,30.47
2018-04-19T03:16:36.456Z,37.70
2018-04-19T03:19:04.859Z,31.30
2018-04-19T03:21:32.393Z,35.07
2018-04-19T03:23:59.925Z,30.53
2018-04-19T03:26:27.515Z,29.13
2018-04-19T03:28:55.090Z,29.20
2018-04-19T03:31:22.601Z,29.20
2018-04-19T03:33:50.168Z,30.17
2018-04-19T03:36:17.755Z,31.80
2018-04-19T03:38:45.291Z,29.33
2018-04-19T03:41:12.815Z,30.33
2018-04-19T03:43:40.435Z,29.90
2018-04-19T03:46:07.963Z,26.13
2018-04-19T03:48:35.560Z,30.67
2018-04-19T03:51:03.115Z,32.37
2018-04-19T03:53:30.640Z,35.20
2018-04-19T03:55:58.164Z,32.00
2018-04-19T03:58:25.778Z,30.83
2018-04-19T04:00:53.306Z,28.47
2018-04-19T04:03:20.837Z,29.40
2018-04-19T04:05:48.359Z,32.53
2018-04-19T04:08:15.980Z,33.80
2018-04-19T04:10:43.491Z,34.07
2018-04-19T04:13:11.016Z,30.97
2018-04-19T04:15:38.612Z,29.97
2018-04-19T04:18:17.846Z,35.47
2018-04-19T04:20:57.340Z,35.53
2018-04-19T04:23:40.724Z,31.80
2018-04-19T04:26:08.258Z,30.77
2018-04-19T04:28:35.782Z,35.30
2018-04-19T04:31:03.341Z,36.90
2018-04-19T04:33:30.889Z,32.63
2018-04-19T04:35:58.421Z,38.97
2018-04-19T04:38:25.939Z,32.40
2018-04-19T04:40:53.468Z,34.00
2018-04-19T04:43:21.096Z,33.43
2018-04-19T04:45:48.621Z,30.93
2018-04-19T04:48:16.157Z,34.17
2018-04-19T04:50:43.685Z,31.40
2018-04-19T04:53:11.218Z,35.70
2018-04-19T04:55:38.756Z,32.60
2018-04-19T04:58:06.281Z,32.87
2018-04-19T05:00:33.795Z,36.33
2018-04-19T05:03:01.332Z,29.83
2018-04-19T05:05:28.857Z,33.30
2018-04-19T05:07:56.389Z,35.90
2018-04-19T05:10:23.912Z,34.73
2018-04-19T05:12:51.449Z,33.37
2018-04-19T05:15:19.034Z,40.77
2018-04-19T05:17:46.572Z,33.80
2018-04-19T05:20:14.290Z,35.93
2018-04-19T05:22:41.935Z,37.27
2018-04-19T05:25:09.476Z,77.30
2018-04-19T05:27:37.004Z,111.93
2018-04-19T05:30:04.572Z,133.90
2018-04-19T05:32:32.117Z,519.63
2018-04-19T05:34:59.647Z,947.70
2018-04-19T05:37:27.179Z,628.77
2018-04-19T05:39:54.781Z,448.63
2018-04-19T05:42:22.329Z,274.67
2018-04-19T07:00:51.842Z,19.77
2018-04-19T07:03:19.400Z,24.00
2018-04-19T07:05:46.940Z,20.17
2018-04-19T07:08:14.459Z,22.23
2018-04-19T07:10:41.993Z,15.07
2018-04-19T07:13:09.537Z,18.73
2018-04-19T07:15:37.109Z,19.47
2018-04-19T07:18:04.642Z,16.60
2018-04-19T07:20:32.235Z,15.53
2018-04-19T07:22:59.753Z,16.07
2018-04-19T07:25:27.287Z,19.77
2018-04-19T07:27:54.834Z,15.97
2018-04-19T07:30:22.378Z,17.47
2018-04-19T07:32:49.917Z,17.00
2018-04-19T07:35:17.468Z,17.07
2018-04-19T07:37:45.047Z,12.47
2018-04-19T07:40:12.612Z,15.17
2018-04-19T07:42:40.171Z,16.17
2018-04-19T07:45:07.696Z,17.23
2018-04-19T07:47:35.224Z,19.83
2018-04-19T07:50:02.746Z,16.15
2018-04-19T07:52:30.310Z,15.38
2018-04-19T07:54:58.542Z,16.65
2018-04-19T07:57:26.078Z,12.70
2018-04-19T07:59:53.632Z,12.13
2018-04-19T08:02:21.261Z,11.60
2018-04-19T08:04:48.915Z,10.18
2018-04-19T08:07:16.494Z,22.25
2018-04-19T08:09:44.049Z,9.15
2018-04-19T08:12:11.588Z,11.15
2018-04-19T08:14:39.108Z,9.88
2018-04-19T08:17:06.658Z,11.15
2018-04-19T08:19:34.289Z,9.57
2018-04-19T08:22:01.851Z,10.32
2018-04-19T08:24:29.432Z,7.62
2018-04-19T08:26:57.059Z,9.20
2018-04-19T08:29:24.579Z,12.20
2018-04-19T08:31:52.125Z,19.30
2018-04-19T08:34:19.636Z,8.55
2018-04-19T08:36:47.168Z,9.80
2018-04-19T08:39:14.708Z,13.13
2018-04-19T08:41:42.253Z,16.80
2018-04-19T08:44:09.890Z,10.63
2018-04-19T08:46:37.415Z,9.32
2018-04-19T08:49:04.937Z,9.00
2018-04-19T08:51:32.467Z,7.05
2018-04-19T08:53:59.997Z,11.32
2018-04-19T08:56:27.568Z,9.68
2018-04-19T08:58:55.100Z,8.85
2018-04-19T09:01:22.631Z,10.30
2018-04-19T09:03:50.268Z,10.73
2018-04-19T09:06:17.784Z,20.08
2018-04-19T09:08:45.387Z,16.95
2018-04-19T09:11:12.948Z,8.43
2018-04-19T09:13:40.503Z,12.57
2018-04-19T09:16:08.022Z,8.20
2018-04-19T09:18:35.623Z,12.23
2018-04-19T09:21:03.184Z,9.18
2018-04-19T09:23:30.704Z,8.88
2018-04-19T09:25:58.307Z,8.00
2018-04-19T09:28:25.878Z,10.98
2018-04-19T09:30:53.399Z,9.48
2018-04-19T09:33:20.940Z,13.32
2018-04-19T09:35:48.481Z,9.60
2018-04-19T09:38:16.004Z,15.35
2018-04-19T09:40:43.519Z,15.70
2018-04-19T09:43:11.050Z,9.15
2018-04-19T09:45:38.582Z,9.05
2018-04-19T09:48:06.123Z,8.07
2018-04-19T09:50:33.654Z,11.18
2018-04-19T09:53:01.187Z,13.75
2018-04-19T09:55:28.719Z,8.95
2018-04-19T09:58:08.091Z,10.43
2018-04-19T10:00:41.307Z,13.05
2018-04-19T10:03:08.835Z,9.32
2018-04-19T10:08:35.055Z,11.05
2018-04-19T10:11:02.581Z,9.55
2018-04-19T10:13:30.099Z,7.57
2018-04-19T10:15:57.650Z,8.88
2018-04-19T10:18:25.193Z,9.00
2018-04-19T10:20:52.731Z,10.15
2018-04-19T10:23:20.248Z,13.32
2018-04-19T10:25:47.771Z,8.95
2018-04-19T10:28:15.296Z,9.07
2018-04-19T10:30:42.820Z,6.97
2018-04-19T10:33:10.344Z,15.52
2018-04-19T10:35:37.884Z,10.93
2018-04-19T10:38:05.470Z,9.10
2018-04-19T10:40:33.000Z,10.48
2018-04-19T10:43:00.525Z,8.95
2018-04-19T10:45:28.092Z,12.43
2018-04-19T10:47:55.655Z,10.13
2018-04-19T10:50:23.218Z,10.88
2018-04-19T10:52:50.768Z,14.93
2018-04-19T10:55:18.375Z,10.45
2018-04-19T10:57:45.948Z,39.22
2018-04-19T11:00:13.475Z,23.08
2018-04-19T11:02:41.055Z,22.02
2018-04-19T11:05:08.593Z,22.95
2018-04-19T11:07:36.128Z,111.00
2018-04-19T11:10:03.674Z,41.80
2018-04-19T11:12:31.191Z,17.37
2018-04-19T11:14:58.764Z,18.17
2018-04-19T11:17:26.289Z,18.67
2018-04-19T11:19:53.820Z,72.63
2018-04-19T11:22:21.344Z,25.20
2018-04-19T11:24:48.878Z,18.90
2018-04-19T11:27:16.396Z,26.40
2018-04-19T11:29:43.920Z,41.47
2018-04-19T11:32:11.447Z,34.90
2018-04-19T11:34:38.976Z,13.97
2018-04-19T11:37:06.598Z,17.30
2018-04-19T11:39:34.156Z,13.97
2018-04-19T11:42:01.718Z,25.70
2018-04-19T11:44:29.255Z,14.17
2018-04-19T11:46:56.772Z,12.10
2018-04-19T11:49:24.400Z,14.83
2018-04-19T11:51:51.925Z,14.87
2018-04-19T11:54:19.480Z,12.57
2018-04-19T11:56:47.046Z,10.57
2018-04-19T11:59:14.571Z,12.13
2018-04-19T12:01:42.126Z,19.20
2018-04-19T12:04:09.656Z,13.93
2018-04-19T12:06:37.172Z,15.20
2018-04-19T12:09:05.592Z,13.83
2018-04-19T12:11:33.157Z,14.63
2018-04-19T12:14:00.720Z,12.83
2018-04-19T12:16:28.262Z,9.07
2018-04-19T12:18:55.788Z,13.73
2018-04-19T12:21:23.329Z,15.40
2018-04-19T12:23:50.854Z,13.03
2018-04-19T12:26:18.390Z,9.50
2018-04-19T12:28:45.924Z,11.77
2018-04-19T12:31:13.500Z,15.90
2018-04-19T12:33:41.025Z,13.50
2018-04-19T12:36:08.555Z,13.97
2018-04-19T12:38:36.100Z,14.73
2018-04-19T12:41:03.684Z,15.63
2018-04-19T12:43:31.228Z,13.10
2018-04-19T12:45:58.762Z,17.60
2018-04-19T12:48:26.288Z,14.73
2018-04-19T12:50:53.805Z,13.37
2018-04-19T12:53:21.341Z,10.10
2018-04-19T12:55:48.924Z,14.70
2018-04-19T12:58:16.443Z,12.93
2018-04-19T13:00:44.050Z,15.03
2018-04-19T13:03:11.582Z,10.03
2018-04-19T13:05:39.100Z,12.83
2018-04-19T13:08:06.711Z,10.40
2018-04-19T13:10:34.287Z,8.70
2018-04-19T13:13:01.821Z,10.50
2018-04-19T13:15:29.342Z,10.23
2018-04-19T13:17:56.971Z,10.00
2018-04-19T13:20:24.496Z,15.67
2018-04-19T13:22:52.020Z,8.63
2018-04-19T13:25:19.549Z,8.27
2018-04-19T13:27:47.072Z,10.70
2018-04-19T13:30:14.599Z,11.67
2018-04-19T13:32:42.123Z,11.47
2018-04-19T13:35:09.682Z,12.93
2018-04-19T13:37:37.208Z,11.43
2018-04-19T13:40:04.730Z,8.67
2018-04-19T13:42:32.261Z,13.00
2018-04-19T13:44:59.833Z,8.90
2018-04-19T13:47:27.362Z,11.40
2018-04-19T13:49:54.891Z,11.13
2018-04-19T13:52:22.415Z,9.90
2018-04-19T13:54:49.957Z,9.87
2018-04-19T13:57:17.484Z,9.63
2018-04-19T13:59:45.074Z,9.53
2018-04-19T14:02:12.606Z,7.57
2018-04-19T14:04:40.208Z,13.23
2018-04-19T14:07:07.724Z,10.67
2018-04-19T14:09:35.259Z,8.07
2018-04-19T14:12:02.887Z,6.57
2018-04-19T14:14:30.413Z,7.20
2018-04-19T14:16:57.940Z,9.57
2018-04-19T14:19:25.485Z,6.70
2018-04-19T14:21:53.035Z,7.00
2018-04-19T14:24:20.556Z,8.37
2018-04-19T14:26:49.032Z,9.37
2018-04-19T14:29:16.547Z,7.27
2018-04-19T14:31:44.182Z,9.60
2018-04-19T14:34:11.721Z,8.70
2018-04-19T14:36:39.259Z,11.83
2018-04-19T14:39:06.795Z,6.60
2018-04-19T14:41:34.320Z,8.50
2018-04-19T14:44:01.861Z,8.87
2018-04-19T14:46:29.429Z,7.93
2018-04-19T14:48:56.960Z,6.73
2018-04-19T14:51:24.481Z,9.40
2018-04-19T14:53:52.020Z,6.97
2018-04-19T14:56:19.548Z,8.80
2018-04-19T14:58:47.135Z,9.70
2018-04-19T15:01:14.667Z,6.47
2018-04-19T15:03:42.179Z,7.17
2018-04-19T15:06:09.712Z,8.30
2018-04-19T15:08:37.245Z,9.27
2018-04-19T15:11:04.760Z,7.13
2018-04-19T15:13:32.290Z,9.20
2018-04-19T15:15:59.821Z,8.20
2018-04-19T15:18:27.340Z,6.13
2018-04-19T15:20:54.972Z,5.73
2018-04-19T15:23:22.500Z,11.40
2018-04-19T15:25:50.032Z,9.13
2018-04-19T15:28:17.580Z,6.57
2018-04-19T15:30:45.105Z,8.60
2018-04-19T15:33:12.637Z,9.87
2018-04-19T15:35:40.225Z,6.73
2018-04-19T15:38:07.782Z,8.23
2018-04-19T15:40:35.302Z,8.20
2018-04-19T15:43:02.916Z,6.40
2018-04-19T15:45:30.585Z,10.03
2018-04-19T15:47:58.104Z,7.57
2018-04-19T15:50:25.617Z,6.83
2018-04-19T15:52:53.143Z,5.80
2018-04-19T15:55:20.680Z,8.07
2018-04-19T15:57:48.191Z,6.73
2018-04-19T16:00:15.725Z,5.67
2018-04-19T16:02:43.282Z,8.47
2018-04-19T16:05:10.943Z,8.53
2018-04-19T16:07:38.504Z,8.73
2018-04-19T16:10:06.034Z,7.17
2018-04-19T16:12:33.547Z,9.27
2018-04-19T16:15:01.101Z,5.63
2018-04-19T16:17:28.716Z,9.03
2018-04-19T16:19:56.241Z,7.07
2018-04-19T16:22:23.759Z,6.60
2018-04-19T16:24:51.302Z,10.67
2018-04-19T16:27:18.851Z,9.00
2018-04-19T16:29:46.365Z,8.67
2018-04-19T16:32:13.897Z,8.43
2018-04-19T16:34:41.421Z,8.37
2018-04-19T16:37:08.953Z,9.67
2018-04-19T16:39:36.530Z,8.73
2018-04-19T16:42:04.075Z,6.30
2018-04-19T16:44:31.592Z,7.10
2018-04-19T16:46:59.151Z,11.23
2018-04-19T16:49:26.683Z,8.03
2018-04-19T16:51:54.195Z,7.67
2018-04-19T16:54:21.712Z,8.27
2018-04-19T16:56:49.287Z,9.33
2018-04-19T16:59:16.820Z,10.53
2018-04-19T17:01:44.338Z,6.60
2018-04-19T17:04:11.856Z,7.53
2018-04-19T17:06:39.381Z,6.80
2018-04-19T17:09:07.193Z,7.33
2018-04-19T17:11:34.754Z,12.30
2018-04-19T17:14:02.418Z,7.83
2018-04-19T17:16:30.227Z,11.53
2018-04-19T17:18:57.826Z,7.47
2018-04-19T17:21:25.351Z,6.30
2018-04-19T17:23:52.890Z,7.67
2018-04-19T17:26:20.516Z,11.33
2018-04-19T17:28:48.052Z,6.27
2018-04-19T17:31:15.569Z,9.63
2018-04-19T17:33:43.183Z,7.27
2018-04-19T17:36:10.869Z,8.90
2018-04-19T17:38:38.631Z,6.20
2018-04-19T17:41:06.160Z,6.17
2018-04-19T17:43:33.674Z,8.43
2018-04-19T17:46:01.311Z,10.23
2018-04-19T17:48:28.833Z,9.97
2018-04-19T17:50:56.380Z,8.70
2018-04-19T17:53:23.895Z,8.90
2018-04-19T17:55:51.415Z,7.77
2018-04-19T17:58:18.987Z,8.23
2018-04-19T18:00:46.559Z,10.03
2018-04-19T18:03:14.071Z,9.40
2018-04-19T18:05:41.683Z,13.43
2018-04-19T18:08:09.215Z,6.80
2018-04-19T18:10:36.800Z,10.83
2018-04-19T18:13:04.329Z,7.80
2018-04-19T18:15:31.889Z,11.43
2018-04-19T18:17:59.449Z,10.20
2018-04-19T18:20:27.013Z,9.20
2018-04-19T18:22:54.548Z,12.83
2018-04-19T18:25:22.095Z,10.23
2018-04-19T18:27:49.628Z,7.70
2018-04-19T18:30:17.186Z,8.80
2018-04-19T18:32:44.737Z,9.53
2018-04-19T18:35:12.298Z,7.93
2018-04-19T18:37:39.826Z,9.87
2018-04-19T18:40:07.423Z,8.00
2018-04-19T18:42:34.976Z,8.57
2018-04-19T18:45:02.510Z,10.23
2018-04-19T18:47:30.046Z,8.57
2018-04-19T18:49:57.606Z,8.93
2018-04-19T18:52:25.144Z,7.30
2018-04-19T18:54:52.685Z,8.87
2018-04-19T18:57:20.204Z,7.43
2018-04-19T18:59:47.736Z,9.73
2018-04-19T19:02:15.369Z,5.80
2018-04-19T19:04:43.020Z,9.67
2018-04-19T19:07:10.551Z,7.37
2018-04-19T19:09:38.141Z,11.13
2018-04-19T19:12:05.696Z,11.47
2018-04-19T19:14:34.149Z,11.30
2018-04-19T19:20:12.923Z,9.40
2018-04-19T19:22:40.456Z,8.23
2018-04-19T19:25:08.052Z,9.30
2018-04-19T19:27:35.573Z,5.67
2018-04-19T19:30:03.093Z,8.37
2018-04-19T19:32:30.721Z,7.27
2018-04-19T19:34:58.257Z,9.30
2018-04-19T19:37:25.772Z,8.50
2018-04-19T19:39:53.303Z,8.57
2018-04-19T19:42:20.832Z,7.73
2018-04-19T19:44:48.350Z,7.13
2018-04-19T19:47:15.882Z,8.50
2018-04-19T19:49:43.407Z,10.27
2018-04-19T19:52:10.923Z,7.77
2018-04-19T19:54:38.456Z,8.10
2018-04-19T19:57:05.984Z,7.87
2018-04-19T19:59:33.539Z,8.10
2018-04-19T20:02:01.081Z,12.63
2018-04-19T20:04:28.695Z,7.67
2018-04-19T20:06:56.226Z,9.20
2018-04-19T20:09:23.743Z,9.17
2018-04-19T20:11:51.381Z,6.87
2018-04-19T20:14:18.904Z,8.80
2018-04-19T20:16:46.420Z,9.07
2018-04-19T20:19:14.061Z,7.10
2018-04-19T20:21:41.596Z,10.37
2018-04-19T20:24:09.164Z,15.60
2018-04-19T20:26:36.692Z,9.90
2018-04-19T20:29:04.225Z,7.60
2018-04-19T20:31:31.865Z,7.60
2018-04-19T20:33:59.404Z,8.53
2018-04-19T20:36:26.974Z,10.20
2018-04-19T20:38:54.497Z,8.93
2018-04-19T20:41:22.024Z,6.93
2018-04-19T20:43:49.541Z,5.90
2018-04-19T20:46:17.118Z,9.50
2018-04-19T20:48:44.660Z,7.73
2018-04-19T20:51:12.468Z,7.10
2018-04-19T20:53:40.310Z,8.73
2018-04-19T20:56:08.083Z,8.53
2018-04-19T20:58:35.807Z,8.03
2018-04-19T21:01:03.606Z,10.67
2018-04-19T21:03:31.264Z,8.53
2018-04-19T21:05:58.826Z,7.10
2018-04-19T21:08:26.389Z,8.97
2018-04-19T21:10:53.945Z,6.67
2018-04-19T21:13:21.488Z,9.73
2018-04-19T21:15:49.017Z,9.63
2018-04-19T21:18:16.548Z,8.37
2018-04-19T21:20:44.076Z,10.70
2018-04-19T21:23:11.604Z,7.83
2018-04-19T21:25:39.123Z,8.83
2018-04-19T21:28:06.639Z,9.03
2018-04-19T21:30:34.172Z,10.30
2018-04-19T21:33:01.711Z,9.53
2018-04-19T21:35:29.241Z,8.30
2018-04-19T21:37:56.783Z,9.80
2018-04-19T21:40:24.317Z,9.17
2018-04-19T21:42:51.848Z,10.93
2018-04-19T21:45:19.374Z,7.23
2018-04-19T21:47:46.934Z,7.87
2018-04-19T21:50:14.456Z,8.13
2018-04-19T21:52:41.975Z,9.53
2018-04-19T21:55:09.612Z,9.93
2018-04-19T21:57:37.129Z,7.27
2018-04-19T22:00:04.659Z,10.53
2018-04-19T22:02:32.187Z,8.47
2018-04-19T22:04:59.720Z,11.77
2018-04-19T22:07:27.603Z,12.17
2018-04-19T22:09:55.179Z,10.00
2018-04-19T22:12:22.693Z,8.17
2018-04-19T22:14:50.297Z,12.23
2018-04-19T22:17:17.824Z,9.53
2018-04-19T22:19:45.386Z,11.97
2018-04-19T22:22:12.908Z,12.77
2018-04-19T22:24:40.436Z,10.77
2018-04-19T22:27:07.962Z,13.70
2018-04-19T22:29:35.486Z,10.10
2018-04-19T22:32:02.995Z,11.40
2018-04-19T22:34:30.552Z,8.87
2018-04-19T22:36:58.133Z,11.90
2018-04-19T22:39:25.650Z,12.67
2018-04-19T22:41:53.244Z,10.40
2018-04-19T22:44:20.770Z,15.57
2018-04-19T22:46:48.374Z,12.00
2018-04-19T22:49:15.887Z,12.50
2018-04-19T22:51:43.418Z,10.93
2018-04-19T22:54:10.951Z,9.83
2018-04-19T22:56:38.496Z,11.10
2018-04-19T22:59:06.020Z,11.30
2018-04-19T23:01:33.553Z,11.57
2018-04-19T23:04:01.092Z,15.80
2018-04-19T23:06:28.652Z,10.13
2018-04-19T23:08:56.208Z,10.10
2018-04-19T23:11:23.732Z,12.50
2018-04-19T23:13:51.326Z,9.80
2018-04-19T23:16:18.851Z,10.37
2018-04-19T23:18:46.404Z,13.53
2018-04-19T23:21:13.944Z,12.50
2018-04-19T23:23:41.466Z,9.73
2018-04-19T23:26:08.980Z,12.43
2018-04-19T23:28:36.505Z,12.17
2018-04-19T23:31:04.044Z,14.37
2018-04-19T23:33:31.575Z,11.13
2018-04-19T23:35:59.096Z,16.70
2018-04-19T23:38:26.619Z,10.83
2018-04-19T23:40:54.140Z,14.50
2018-04-19T23:43:21.674Z,13.43
2018-04-19T23:45:49.198Z,10.90
2018-04-19T23:48:16.756Z,11.60
2018-04-19T23:50:44.288Z,13.10
2018-04-19T23:53:11.805Z,11.17
2018-04-19T23:55:39.334Z,14.93
2018-04-19T23:58:06.850Z,12.47
